createdAt,value
2018-08-10T10:10:14.365Z,68.80
2018-08-10T10:12:43.194Z,61.30
2018-08-10T10:15:16.900Z,60.60
2018-08-10T10:17:45.546Z,59.00
2018-08-10T10:20:14.420Z,59.00
2018-08-10T10:22:43.229Z,58.80
2018-08-10T10:25:12.046Z,59.30
2018-08-10T10:27:40.859Z,60.30
2018-08-10T10:30:10.108Z,60.10
2018-08-10T10:32:38.945Z,59.90
2018-08-10T10:35:07.626Z,59.20
2018-08-10T10:37:36.305Z,58.20
2018-08-10T10:40:10.167Z,58.30
2018-08-10T10:42:39.549Z,57.90
2018-08-10T10:45:12.940Z,58.60
2018-08-10T10:47:42.593Z,58.60
2018-08-10T10:50:12.566Z,59.10
2018-08-10T10:52:41.214Z,58.60
2018-08-10T10:55:10.277Z,58.20
2018-08-10T10:57:39.402Z,58.10
2018-08-10T11:00:11.375Z,57.80
2018-08-10T11:02:40.454Z,58.10
2018-08-10T11:05:09.516Z,58.20
2018-08-10T11:07:40.335Z,58.20
2018-08-10T11:10:11.698Z,58.10
2018-08-10T11:12:40.429Z,57.50
2018-08-10T11:15:10.200Z,56.90
2018-08-10T11:17:39.547Z,56.10
2018-08-10T11:20:09.682Z,56.10
2018-08-10T11:22:39.911Z,57.00
2018-08-10T11:25:11.349Z,56.20
2018-08-10T11:27:44.409Z,56.50
2018-08-10T11:30:13.409Z,57.50
2018-08-10T11:32:42.444Z,57.50
2018-08-10T11:35:13.723Z,57.00
2018-08-10T11:37:42.320Z,56.40
2018-08-10T11:40:14.189Z,56.30
2018-08-10T11:42:43.427Z,55.80
2018-08-10T11:45:14.586Z,55.40
2018-08-10T11:47:57.998Z,55.10
2018-08-10T14:14:50.604Z,50.40
2018-08-10T14:17:40.275Z,50.40
2018-08-10T14:20:15.414Z,50.30
2018-08-10T14:37:40.768Z,50.10
2018-08-10T14:40:31.783Z,49.80
2018-08-10T17:29:24.388Z,49.60
2018-08-10T17:32:28.984Z,47.70
2018-08-10T17:43:46.367Z,48.10
2018-08-10T17:50:04.919Z,48.20
